sensor_id;sensor_type;location;lat;lon;timestamp;pressure;altitude;pressure_sealevel;temperature;humidity
69173;BME280;56280;49.662;8.408;2023-02-05T00:01:33;102841.69;;;4.18;74.97
69173;BME280;56280;49.662;8.408;2023-02-05T00:03:59;102863.50;;;4.23;77.02
69173;BME280;56280;49.662;8.408;2023-02-05T00:06:24;102852.09;;;4.26;76.80
69173;BME280;56280;49.662;8.408;2023-02-05T00:08:50;102830.19;;;4.24;75.68
69173;BME280;56280;49.662;8.408;2023-02-05T00:11:15;102867.78;;;4.32;77.56
69173;BME280;56280;49.662;8.408;2023-02-05T00:13:41;102825.84;;;4.21;76.62
69173;BME280;56280;49.662;8.408;2023-02-05T00:16:15;102842.28;;;4.35;75.67
69173;BME280;56280;49.662;8.408;2023-02-05T00:18:40;102816.97;;;4.28;75.45
69173;BME280;56280;49.662;8.408;2023-02-05T00:21:07;102822.16;;;4.31;75.34
69173;BME280;56280;49.662;8.408;2023-02-05T00:23:33;102828.03;;;4.46;75.14
69173;BME280;56280;49.662;8.408;2023-02-05T00:25:58;102853.22;;;4.62;75.78
69173;BME280;56280;49.662;8.408;2023-02-05T00:28:24;102830.94;;;4.32;76.17
69173;BME280;56280;49.662;8.408;2023-02-05T00:30:49;102729.94;;;3.88;75.42
69173;BME280;56280;49.662;8.408;2023-02-05T00:33:14;102795.03;;;4.28;75.29
69173;BME280;56280;49.662;8.408;2023-02-05T00:35:43;102823.59;;;4.49;75.39
69173;BME280;56280;49.662;8.408;2023-02-05T00:38:09;102835.09;;;4.44;75.89
69173;BME280;56280;49.662;8.408;2023-02-05T00:40:35;102819.38;;;4.41;75.53
69173;BME280;56280;49.662;8.408;2023-02-05T00:43:00;102793.19;;;4.31;75.35
69173;BME280;56280;49.662;8.408;2023-02-05T00:45:25;102823.75;;;4.42;76.33
69173;BME280;56280;49.662;8.408;2023-02-05T00:47:56;102823.78;;;4.38;75.51
69173;BME280;56280;49.662;8.408;2023-02-05T00:50:21;102800.16;;;4.35;75.71
69173;BME280;56280;49.662;8.408;2023-02-05T00:52:46;102818.84;;;4.18;76.17
69173;BME280;56280;49.662;8.408;2023-02-05T00:55:11;102775.25;;;4.05;75.59
69173;BME280;56280;49.662;8.408;2023-02-05T00:57:37;102803.81;;;4.28;76.34
69173;BME280;56280;49.662;8.408;2023-02-05T01:00:03;102831.38;;;4.55;75.16
69173;BME280;56280;49.662;8.408;2023-02-05T01:02:28;102815.69;;;4.51;75.20
69173;BME280;56280;49.662;8.408;2023-02-05T01:04:53;102789.50;;;4.43;74.60
69173;BME280;56280;49.662;8.408;2023-02-05T01:07:20;102791.91;;;4.54;74.42
69173;BME280;56280;49.662;8.408;2023-02-05T01:09:45;102761.91;;;4.16;75.92
69173;BME280;56280;49.662;8.408;2023-02-05T01:12:11;102778.47;;;4.21;76.52
69173;BME280;56280;49.662;8.408;2023-02-05T01:14:39;102787.78;;;4.41;76.03
69173;BME280;56280;49.662;8.408;2023-02-05T01:17:04;102803.97;;;4.67;75.10
69173;BME280;56280;49.662;8.408;2023-02-05T01:19:32;102784.72;;;4.64;74.43
69173;BME280;56280;49.662;8.408;2023-02-05T01:21:57;102782.91;;;4.67;74.36
69173;BME280;56280;49.662;8.408;2023-02-05T01:24:23;102792.34;;;4.78;75.04
69173;BME280;56280;49.662;8.408;2023-02-05T01:26:48;102765.41;;;4.63;74.79
69173;BME280;56280;49.662;8.408;2023-02-05T01:29:13;102766.34;;;4.62;74.83
69173;BME280;56280;49.662;8.408;2023-02-05T01:31:38;102791.56;;;4.72;76.12
69173;BME280;56280;49.662;8.408;2023-02-05T01:34:04;102777.69;;;4.64;76.39
69173;BME280;56280;49.662;8.408;2023-02-05T01:36:29;102751.50;;;4.56;75.88
69173;BME280;56280;49.662;8.408;2023-02-05T01:38:54;102759.03;;;4.77;75.16
69173;BME280;56280;49.662;8.408;2023-02-05T01:41:19;102783.41;;;4.86;76.31
69173;BME280;56280;49.662;8.408;2023-02-05T01:44:07;102724.44;;;4.50;76.09
69173;BME280;56280;49.662;8.408;2023-02-05T01:46:36;102768.59;;;4.81;76.18
69173;BME280;56280;49.662;8.408;2023-02-05T01:49:02;102784.69;;;5.09;75.72
69173;BME280;56280;49.662;8.408;2023-02-05T01:51:29;102783.06;;;5.02;75.68
69173;BME280;56280;49.662;8.408;2023-02-05T01:53:55;102758.69;;;4.92;76.19
69173;BME280;56280;49.662;8.408;2023-02-05T01:56:25;102788.94;;;5.15;74.86
69173;BME280;56280;49.662;8.408;2023-02-05T01:58:56;102764.50;;;5.08;74.39
69173;BME280;56280;49.662;8.408;2023-02-05T02:01:23;102724.28;;;5.00;74.36
69173;BME280;56280;49.662;8.408;2023-02-05T02:03:50;102706.78;;;4.97;73.88
69173;BME280;56280;49.662;8.408;2023-02-05T02:06:18;102717.03;;;5.09;73.72
69173;BME280;56280;49.662;8.408;2023-02-05T02:08:43;102700.63;;;4.98;74.66
69173;BME280;56280;49.662;8.408;2023-02-05T02:11:09;102703.44;;;4.89;74.69
69173;BME280;56280;49.662;8.408;2023-02-05T02:13:37;102736.94;;;5.23;74.63
69173;BME280;56280;49.662;8.408;2023-02-05T02:16:04;102743.69;;;5.36;73.95
69173;BME280;56280;49.662;8.408;2023-02-05T02:18:32;102697.75;;;5.09;73.42
69173;BME280;56280;49.662;8.408;2023-02-05T02:21:26;102741.06;;;5.36;74.19
69173;BME280;56280;49.662;8.408;2023-02-05T02:24:11;102745.38;;;5.39;74.04
69173;BME280;56280;49.662;8.408;2023-02-05T02:29:38;102722.88;;;5.24;74.45
69173;BME280;56280;49.662;8.408;2023-02-05T02:32:19;102716.91;;;5.16;74.39
69173;BME280;56280;49.662;8.408;2023-02-05T02:34:50;102735.16;;;5.25;74.84
69173;BME280;56280;49.662;8.408;2023-02-05T02:37:24;102714.81;;;4.91;75.58
69173;BME280;56280;49.662;8.408;2023-02-05T02:40:03;102715.53;;;4.99;75.28
69173;BME280;56280;49.662;8.408;2023-02-05T02:42:46;102683.41;;;4.82;75.39
69173;BME280;56280;49.662;8.408;2023-02-05T02:45:14;102694.34;;;4.62;75.85
69173;BME280;56280;49.662;8.408;2023-02-05T02:48:02;102723.88;;;5.18;75.19
69173;BME280;56280;49.662;8.408;2023-02-05T02:50:32;102722.03;;;5.23;74.99
69173;BME280;56280;49.662;8.408;2023-02-05T02:53:08;102653.00;;;5.07;73.97
69173;BME280;56280;49.662;8.408;2023-02-05T02:55:37;102666.81;;;5.17;73.98
69173;BME280;56280;49.662;8.408;2023-02-05T02:58:09;102659.69;;;4.83;74.22
69173;BME280;56280;49.662;8.408;2023-02-05T03:00:38;102663.91;;;4.50;76.02
69173;BME280;56280;49.662;8.408;2023-02-05T03:03:08;102666.97;;;4.70;75.22
69173;BME280;56280;49.662;8.408;2023-02-05T03:05:36;102685.38;;;5.13;74.49
69173;BME280;56280;49.662;8.408;2023-02-05T03:08:10;102710.19;;;5.41;73.64
69173;BME280;56280;49.662;8.408;2023-02-05T03:10:40;102693.16;;;5.55;72.96
69173;BME280;56280;49.662;8.408;2023-02-05T03:13:09;102670.63;;;5.41;72.71
69173;BME280;56280;49.662;8.408;2023-02-05T03:15:36;102662.88;;;5.35;72.58
69173;BME280;56280;49.662;8.408;2023-02-05T03:18:02;102553.41;;;4.47;73.56
69173;BME280;56280;49.662;8.408;2023-02-05T03:20:31;102666.59;;;5.26;73.52
69173;BME280;56280;49.662;8.408;2023-02-05T03:22:57;102662.28;;;5.22;73.87
69173;BME280;56280;49.662;8.408;2023-02-05T03:25:24;102658.78;;;5.23;73.19
69173;BME280;56280;49.662;8.408;2023-02-05T03:27:52;102635.03;;;4.86;74.14
69173;BME280;56280;49.662;8.408;2023-02-05T03:30:19;102663.03;;;4.90;74.64
69173;BME280;56280;49.662;8.408;2023-02-05T03:33:15;102585.69;;;4.55;74.75
69173;BME280;56280;49.662;8.408;2023-02-05T03:38:38;102694.72;;;5.26;74.11
69173;BME280;56280;49.662;8.408;2023-02-05T03:41:22;102686.06;;;5.21;73.58
69173;BME280;56280;49.662;8.408;2023-02-05T03:44:26;102689.97;;;5.40;73.65
69173;BME280;56280;49.662;8.408;2023-02-05T03:47:00;102628.91;;;5.23;73.37
69173;BME280;56280;49.662;8.408;2023-02-05T03:49:30;102676.31;;;5.60;72.81
69173;BME280;56280;49.662;8.408;2023-02-05T03:52:13;102662.56;;;5.47;72.61
69173;BME280;56280;49.662;8.408;2023-02-05T03:54:46;102668.56;;;5.54;72.87
69173;BME280;56280;49.662;8.408;2023-02-05T03:57:17;102679.78;;;5.62;73.14
69173;BME280;56280;49.662;8.408;2023-02-05T03:59:44;102632.56;;;5.17;73.80
69173;BME280;56280;49.662;8.408;2023-02-05T04:02:11;102590.97;;;4.92;73.44
69173;BME280;56280;49.662;8.408;2023-02-05T04:04:37;102622.91;;;5.16;73.43
69173;BME280;56280;49.662;8.408;2023-02-05T04:07:02;102651.53;;;5.32;72.99
69173;BME280;56280;49.662;8.408;2023-02-05T04:09:27;102640.84;;;5.38;73.48
69173;BME280;56280;49.662;8.408;2023-02-05T04:11:53;102624.94;;;5.41;73.23
69173;BME280;56280;49.662;8.408;2023-02-05T04:14:18;102642.47;;;5.43;72.59
69173;BME280;56280;49.662;8.408;2023-02-05T04:16:43;102659.72;;;5.55;72.41
69173;BME280;56280;49.662;8.408;2023-02-05T04:19:09;102667.34;;;5.68;72.38
69173;BME280;56280;49.662;8.408;2023-02-05T04:21:34;102692.09;;;5.62;72.77
69173;BME280;56280;49.662;8.408;2023-02-05T04:23:59;102674.97;;;5.42;72.88
69173;BME280;56280;49.662;8.408;2023-02-05T04:26:24;102684.09;;;5.65;72.92
69173;BME280;56280;49.662;8.408;2023-02-05T04:28:50;102657.22;;;5.51;72.48
69173;BME280;56280;49.662;8.408;2023-02-05T04:31:15;102679.81;;;5.61;72.61
69173;BME280;56280;49.662;8.408;2023-02-05T04:33:41;102683.31;;;5.61;72.72
69173;BME280;56280;49.662;8.408;2023-02-05T04:36:06;102650.13;;;5.53;72.02
69173;BME280;56280;49.662;8.408;2023-02-05T04:38:32;102683.34;;;5.60;72.86
69173;BME280;56280;49.662;8.408;2023-02-05T04:40:58;102694.97;;;5.53;73.96
69173;BME280;56280;49.662;8.408;2023-02-05T04:43:23;102668.72;;;5.48;73.39
69173;BME280;56280;49.662;8.408;2023-02-05T04:45:48;102663.66;;;5.39;72.70
69173;BME280;56280;49.662;8.408;2023-02-05T04:48:14;102686.84;;;5.62;72.97
69173;BME280;56280;49.662;8.408;2023-02-05T04:50:39;102610.53;;;5.20;72.70
69173;BME280;56280;49.662;8.408;2023-02-05T04:53:05;102659.34;;;5.36;72.85
69173;BME280;56280;49.662;8.408;2023-02-05T04:55:30;102638.78;;;5.13;73.26
69173;BME280;56280;49.662;8.408;2023-02-05T04:57:56;102694.78;;;5.60;72.96
69173;BME280;56280;49.662;8.408;2023-02-05T05:00:21;102643.63;;;5.32;73.03
69173;BME280;56280;49.662;8.408;2023-02-05T05:02:47;102636.00;;;5.19;73.74
69173;BME280;56280;49.662;8.408;2023-02-05T05:05:12;102672.50;;;5.38;73.69
69173;BME280;56280;49.662;8.408;2023-02-05T05:07:38;102658.88;;;5.19;73.84
69173;BME280;56280;49.662;8.408;2023-02-05T05:10:04;102665.47;;;4.99;74.60
69173;BME280;56280;49.662;8.408;2023-02-05T05:12:31;102628.94;;;4.84;75.35
69173;BME280;56280;49.662;8.408;2023-02-05T05:14:57;102637.13;;;5.10;74.95
69173;BME280;56280;49.662;8.408;2023-02-05T05:17:22;102630.00;;;5.14;74.84
69173;BME280;56280;49.662;8.408;2023-02-05T05:19:47;102627.84;;;5.30;74.07
69173;BME280;56280;49.662;8.408;2023-02-05T05:22:13;102671.88;;;5.62;73.87
69173;BME280;56280;49.662;8.408;2023-02-05T05:24:38;102653.59;;;5.55;73.47
69173;BME280;56280;49.662;8.408;2023-02-05T05:27:03;102625.66;;;5.11;74.50
69173;BME280;56280;49.662;8.408;2023-02-05T05:29:29;102651.88;;;5.18;75.10
69173;BME280;56280;49.662;8.408;2023-02-05T05:31:54;102653.97;;;5.39;74.09
69173;BME280;56280;49.662;8.408;2023-02-05T05:34:20;102669.03;;;5.70;74.07
69173;BME280;56280;49.662;8.408;2023-02-05T05:36:45;102672.47;;;5.74;74.51
69173;BME280;56280;49.662;8.408;2023-02-05T05:39:12;102626.97;;;5.29;74.96
69173;BME280;56280;49.662;8.408;2023-02-05T05:41:56;102628.78;;;5.27;75.90
69173;BME280;56280;49.662;8.408;2023-02-05T05:44:39;102632.50;;;5.20;76.37
69173;BME280;56280;49.662;8.408;2023-02-05T05:47:05;102652.75;;;5.17;76.30
69173;BME280;56280;49.662;8.408;2023-02-05T05:49:30;102587.16;;;4.67;77.42
69173;BME280;56280;49.662;8.408;2023-02-05T05:51:55;102639.22;;;5.32;76.94
69173;BME280;56280;49.662;8.408;2023-02-05T05:54:20;102647.50;;;5.53;76.68
69173;BME280;56280;49.662;8.408;2023-02-05T05:56:46;102625.91;;;5.38;76.03
69173;BME280;56280;49.662;8.408;2023-02-05T05:59:13;102640.38;;;5.56;75.99
69173;BME280;56280;49.662;8.408;2023-02-05T06:01:38;102621.63;;;5.33;76.05
69173;BME280;56280;49.662;8.408;2023-02-05T06:04:06;102607.06;;;5.18;76.50
69173;BME280;56280;49.662;8.408;2023-02-05T06:06:32;102648.47;;;5.48;76.24
69173;BME280;56280;49.662;8.408;2023-02-05T06:08:57;102617.16;;;5.36;76.64
69173;BME280;56280;49.662;8.408;2023-02-05T06:11:22;102652.56;;;5.62;76.68
69173;BME280;56280;49.662;8.408;2023-02-05T06:13:48;102605.09;;;5.26;76.70
69173;BME280;56280;49.662;8.408;2023-02-05T06:16:13;102681.91;;;5.82;75.86
69173;BME280;56280;49.662;8.408;2023-02-05T06:18:39;102687.97;;;5.86;75.78
69173;BME280;56280;49.662;8.408;2023-02-05T06:21:04;102633.88;;;5.35;76.27
69173;BME280;56280;49.662;8.408;2023-02-05T06:23:30;102675.38;;;5.27;78.10
69173;BME280;56280;49.662;8.408;2023-02-05T06:25:56;102682.06;;;5.40;78.46
69173;BME280;56280;49.662;8.408;2023-02-05T06:28:22;102568.38;;;4.84;78.39
69173;BME280;56280;49.662;8.408;2023-02-05T06:30:47;102664.56;;;5.38;79.28
69173;BME280;56280;49.662;8.408;2023-02-05T06:33:12;102543.13;;;4.75;78.46
69173;BME280;56280;49.662;8.408;2023-02-05T06:35:39;102656.78;;;5.33;79.49
69173;BME280;56280;49.662;8.408;2023-02-05T06:38:05;102678.84;;;5.63;79.75
69173;BME280;56280;49.662;8.408;2023-02-05T06:40:30;102644.34;;;5.38;81.48
69173;BME280;56280;49.662;8.408;2023-02-05T06:42:55;102635.09;;;5.22;81.35
69173;BME280;56280;49.662;8.408;2023-02-05T06:45:21;102620.16;;;4.85;81.89
69173;BME280;56280;49.662;8.408;2023-02-05T06:47:46;102643.59;;;4.96;83.41
69173;BME280;56280;49.662;8.408;2023-02-05T06:50:12;102579.81;;;4.81;83.65
69173;BME280;56280;49.662;8.408;2023-02-05T06:52:37;102641.50;;;5.47;83.38
69173;BME280;56280;49.662;8.408;2023-02-05T06:55:03;102581.25;;;4.96;83.19
69173;BME280;56280;49.662;8.408;2023-02-05T06:57:28;102651.53;;;4.94;84.36
69173;BME280;56280;49.662;8.408;2023-02-05T06:59:56;102603.16;;;4.59;85.83
69173;BME280;56280;49.662;8.408;2023-02-05T07:02:21;102610.56;;;4.81;85.16
69173;BME280;56280;49.662;8.408;2023-02-05T07:04:46;102588.81;;;4.72;84.94
69173;BME280;56280;49.662;8.408;2023-02-05T07:07:11;102626.50;;;4.74;85.59
69173;BME280;56280;49.662;8.408;2023-02-05T07:09:37;102653.47;;;4.86;86.69
69173;BME280;56280;49.662;8.408;2023-02-05T07:12:03;102603.09;;;4.62;86.91
69173;BME280;56280;49.662;8.408;2023-02-05T07:14:28;102651.00;;;4.78;86.24
69173;BME280;56280;49.662;8.408;2023-02-05T07:16:55;102648.81;;;4.58;87.12
69173;BME280;56280;49.662;8.408;2023-02-05T07:19:20;102618.53;;;4.37;87.35
69173;BME280;56280;49.662;8.408;2023-02-05T07:21:46;102673.38;;;4.57;88.41
69173;BME280;56280;49.662;8.408;2023-02-05T07:24:11;102662.13;;;4.50;88.48
69173;BME280;56280;49.662;8.408;2023-02-05T07:26:36;102643.81;;;4.86;87.20
69173;BME280;56280;49.662;8.408;2023-02-05T07:29:03;102626.13;;;4.91;86.20
69173;BME280;56280;49.662;8.408;2023-02-05T07:31:28;102653.91;;;5.05;86.10
69173;BME280;56280;49.662;8.408;2023-02-05T07:33:54;102613.47;;;5.07;85.84
69173;BME280;56280;49.662;8.408;2023-02-05T07:36:19;102616.31;;;4.98;85.68
69173;BME280;56280;49.662;8.408;2023-02-05T07:38:45;102644.22;;;5.05;86.34
69173;BME280;56280;49.662;8.408;2023-02-05T07:41:13;102633.06;;;5.33;85.94
69173;BME280;56280;49.662;8.408;2023-02-05T07:43:39;102628.69;;;5.32;85.05
69173;BME280;56280;49.662;8.408;2023-02-05T07:46:08;102610.69;;;5.14;85.12
69173;BME280;56280;49.662;8.408;2023-02-05T07:48:35;102608.53;;;5.29;84.48
69173;BME280;56280;49.662;8.408;2023-02-05T07:51:00;102621.31;;;5.10;84.58
69173;BME280;56280;49.662;8.408;2023-02-05T07:53:26;102604.53;;;4.75;86.06
69173;BME280;56280;49.662;8.408;2023-02-05T07:55:52;102603.50;;;4.83;85.97
69173;BME280;56280;49.662;8.408;2023-02-05T07:58:18;102640.88;;;5.36;85.49
69173;BME280;56280;49.662;8.408;2023-02-05T08:00:43;102622.09;;;5.14;85.24
69173;BME280;56280;49.662;8.408;2023-02-05T08:03:09;102617.38;;;5.27;85.36
69173;BME280;56280;49.662;8.408;2023-02-05T08:05:38;102630.75;;;5.54;85.09
69173;BME280;56280;49.662;8.408;2023-02-05T08:08:04;102611.72;;;5.42;85.14
69173;BME280;56280;49.662;8.408;2023-02-05T08:10:29;102637.69;;;5.58;85.11
69173;BME280;56280;49.662;8.408;2023-02-05T08:12:54;102588.84;;;5.44;85.17
69173;BME280;56280;49.662;8.408;2023-02-05T08:15:20;102608.41;;;5.34;85.00
69173;BME280;56280;49.662;8.408;2023-02-05T08:17:45;102609.41;;;5.30;85.38
69173;BME280;56280;49.662;8.408;2023-02-05T08:20:11;102616.13;;;5.42;85.27
69173;BME280;56280;49.662;8.408;2023-02-05T08:22:39;102610.56;;;4.81;86.30
69173;BME280;56280;49.662;8.408;2023-02-05T08:25:06;102630.28;;;4.63;87.78
69173;BME280;56280;49.662;8.408;2023-02-05T08:27:33;102617.53;;;4.83;87.79
69173;BME280;56280;49.662;8.408;2023-02-05T08:29:58;102580.41;;;4.56;88.12
69173;BME280;56280;49.662;8.408;2023-02-05T08:32:24;102580.34;;;4.58;88.90
69173;BME280;56280;49.662;8.408;2023-02-05T08:34:49;102578.91;;;4.84;88.82
69173;BME280;56280;49.662;8.408;2023-02-05T08:37:14;102598.69;;;5.38;87.42
69173;BME280;56280;49.662;8.408;2023-02-05T08:39:39;102572.81;;;5.18;86.79
69173;BME280;56280;49.662;8.408;2023-02-05T08:42:05;102586.69;;;5.24;86.06
69173;BME280;56280;49.662;8.408;2023-02-05T08:44:30;102558.38;;;4.98;86.64
69173;BME280;56280;49.662;8.408;2023-02-05T08:46:56;102595.59;;;5.55;86.21
69173;BME280;56280;49.662;8.408;2023-02-05T08:49:21;102595.19;;;5.70;85.99
69173;BME280;56280;49.662;8.408;2023-02-05T08:51:47;102599.38;;;5.77;85.69
69173;BME280;56280;49.662;8.408;2023-02-05T08:54:12;102579.78;;;5.55;84.79
69173;BME280;56280;49.662;8.408;2023-02-05T08:56:40;102559.44;;;5.25;85.64
69173;BME280;56280;49.662;8.408;2023-02-05T08:59:06;102567.09;;;5.36;85.63
69173;BME280;56280;49.662;8.408;2023-02-05T09:01:33;102600.50;;;5.69;85.43
69173;BME280;56280;49.662;8.408;2023-02-05T09:04:01;102577.25;;;5.50;85.73
69173;BME280;56280;49.662;8.408;2023-02-05T09:06:27;102560.72;;;5.43;86.45
69173;BME280;56280;49.662;8.408;2023-02-05T09:08:52;102547.50;;;5.45;85.40
69173;BME280;56280;49.662;8.408;2023-02-05T09:11:22;102573.38;;;4.95;86.66
69173;BME280;56280;49.662;8.408;2023-02-05T09:13:48;102566.78;;;5.13;87.37
69173;BME280;56280;49.662;8.408;2023-02-05T09:16:13;102556.69;;;5.30;86.95
69173;BME280;56280;49.662;8.408;2023-02-05T09:18:38;102563.56;;;5.70;86.62
69173;BME280;56280;49.662;8.408;2023-02-05T09:21:08;102569.75;;;5.68;85.61
69173;BME280;56280;49.662;8.408;2023-02-05T09:23:33;102585.84;;;5.91;85.56
69173;BME280;56280;49.662;8.408;2023-02-05T09:25:59;102590.94;;;5.99;85.20
69173;BME280;56280;49.662;8.408;2023-02-05T09:28:24;102564.19;;;5.78;84.48
69173;BME280;56280;49.662;8.408;2023-02-05T09:30:50;102561.84;;;5.35;84.95
69173;BME280;56280;49.662;8.408;2023-02-05T09:33:16;102536.50;;;5.29;86.72
69173;BME280;56280;49.662;8.408;2023-02-05T09:35:41;102560.91;;;5.70;86.28
69173;BME280;56280;49.662;8.408;2023-02-05T09:38:07;102560.50;;;5.84;86.05
69173;BME280;56280;49.662;8.408;2023-02-05T09:46:08;102564.94;;;5.83;86.12
69173;BME280;56280;49.662;8.408;2023-02-05T09:51:33;102562.94;;;5.60;87.20
69173;BME280;56280;49.662;8.408;2023-02-05T09:54:12;102565.22;;;5.73;86.91
69173;BME280;56280;49.662;8.408;2023-02-05T09:56:40;102533.53;;;5.74;86.53
69173;BME280;56280;49.662;8.408;2023-02-05T09:59:12;102544.59;;;5.87;86.53
69173;BME280;56280;49.662;8.408;2023-02-05T10:01:42;102553.91;;;6.00;85.96
69173;BME280;56280;49.662;8.408;2023-02-05T10:04:09;102537.00;;;6.08;86.52
69173;BME280;56280;49.662;8.408;2023-02-05T10:07:17;102556.94;;;6.18;85.04
69173;BME280;56280;49.662;8.408;2023-02-05T10:20:50;102523.59;;;6.15;87.03
69173;BME280;56280;49.662;8.408;2023-02-05T10:26:12;102524.94;;;6.29;86.40
69173;BME280;56280;49.662;8.408;2023-02-05T10:28:54;102535.41;;;6.32;85.86
69173;BME280;56280;49.662;8.408;2023-02-05T10:31:49;102549.69;;;6.25;86.50
69173;BME280;56280;49.662;8.408;2023-02-05T10:34:41;102537.59;;;6.17;87.15
69173;BME280;56280;49.662;8.408;2023-02-05T10:37:18;102530.00;;;6.07;87.04
69173;BME280;56280;49.662;8.408;2023-02-05T10:39:46;102513.44;;;5.37;89.36
69173;BME280;56280;49.662;8.408;2023-02-05T10:42:20;102530.44;;;5.58;90.63
69173;BME280;56280;49.662;8.408;2023-02-05T10:44:58;102509.28;;;5.93;90.03
69173;BME280;56280;49.662;8.408;2023-02-05T10:50:23;102520.25;;;6.38;89.19
69173;BME280;56280;49.662;8.408;2023-02-05T10:52:50;102504.75;;;5.98;88.91
69173;BME280;56280;49.662;8.408;2023-02-05T10:55:16;102479.91;;;6.05;90.27
69173;BME280;56280;49.662;8.408;2023-02-05T10:57:41;102516.63;;;6.43;91.05
69173;BME280;56280;49.662;8.408;2023-02-05T11:02:41;102483.16;;;6.13;90.96
69173;BME280;56280;49.662;8.408;2023-02-05T11:05:20;102448.06;;;6.11;90.92
69173;BME280;56280;49.662;8.408;2023-02-05T11:07:49;102474.59;;;6.35;91.33
69173;BME280;56280;49.662;8.408;2023-02-05T11:10:44;102487.47;;;6.17;90.44
69173;BME280;56280;49.662;8.408;2023-02-05T11:13:25;102463.44;;;5.97;90.44
69173;BME280;56280;49.662;8.408;2023-02-05T11:15:54;102469.16;;;6.11;91.11
69173;BME280;56280;49.662;8.408;2023-02-05T11:18:22;102475.59;;;6.31;91.29
69173;BME280;56280;49.662;8.408;2023-02-05T11:20:57;102470.13;;;6.37;91.02
69173;BME280;56280;49.662;8.408;2023-02-05T11:23:25;102460.75;;;6.28;90.49
69173;BME280;56280;49.662;8.408;2023-02-05T11:25:59;102469.84;;;6.46;90.85
69173;BME280;56280;49.662;8.408;2023-02-05T11:28:30;102456.94;;;6.37;90.35
69173;BME280;56280;49.662;8.408;2023-02-05T11:30:56;102470.19;;;6.35;90.22
69173;BME280;56280;49.662;8.408;2023-02-05T11:35:51;102441.69;;;5.89;90.67
69173;BME280;56280;49.662;8.408;2023-02-05T11:38:24;102430.38;;;6.13;90.19
69173;BME280;56280;49.662;8.408;2023-02-05T11:40:56;102452.97;;;6.24;90.44
69173;BME280;56280;49.662;8.408;2023-02-05T11:43:26;102426.03;;;6.12;90.86
69173;BME280;56280;49.662;8.408;2023-02-05T11:45:54;102442.88;;;6.36;90.58
69173;BME280;56280;49.662;8.408;2023-02-05T11:50:49;102410.53;;;6.30;90.56
69173;BME280;56280;49.662;8.408;2023-02-05T11:54:32;102443.31;;;6.51;90.81
69173;BME280;56280;49.662;8.408;2023-02-05T12:02:40;102458.75;;;6.35;91.67
69173;BME280;56280;49.662;8.408;2023-02-05T12:05:17;102452.31;;;6.44;91.25
69173;BME280;56280;49.662;8.408;2023-02-05T12:10:54;102456.13;;;6.62;90.57
69173;BME280;56280;49.662;8.408;2023-02-05T12:13:29;102440.19;;;6.65;89.95
69173;BME280;56280;49.662;8.408;2023-02-05T12:16:17;102443.81;;;6.62;89.94
69173;BME280;56280;49.662;8.408;2023-02-05T12:18:59;102441.13;;;6.64;90.38
69173;BME280;56280;49.662;8.408;2023-02-05T12:21:43;102439.19;;;6.69;90.27
69173;BME280;56280;49.662;8.408;2023-02-05T12:27:47;102440.19;;;6.10;92.49
69173;BME280;56280;49.662;8.408;2023-02-05T12:35:39;102415.81;;;6.30;92.12
69173;BME280;56280;49.662;8.408;2023-02-05T12:43:36;102404.69;;;6.20;92.95
69173;BME280;56280;49.662;8.408;2023-02-05T12:46:09;102410.63;;;6.27;93.54
69173;BME280;56280;49.662;8.408;2023-02-05T12:48:56;102425.44;;;6.31;93.77
69173;BME280;56280;49.662;8.408;2023-02-05T12:57:13;102407.00;;;6.29;93.89
69173;BME280;56280;49.662;8.408;2023-02-05T12:59:43;102389.53;;;6.27;93.21
69173;BME280;56280;49.662;8.408;2023-02-05T13:04:42;102349.31;;;5.90;93.70
69173;BME280;56280;49.662;8.408;2023-02-05T13:07:32;102421.28;;;6.24;94.07
69173;BME280;56280;49.662;8.408;2023-02-05T13:10:04;102394.56;;;6.06;93.82
69173;BME280;56280;49.662;8.408;2023-02-05T13:12:34;102349.56;;;6.11;93.64
69173;BME280;56280;49.662;8.408;2023-02-05T13:15:20;102370.63;;;6.39;93.47
69173;BME280;56280;49.662;8.408;2023-02-05T13:17:54;102416.47;;;6.63;93.35
69173;BME280;56280;49.662;8.408;2023-02-05T13:20:27;102403.50;;;6.57;93.08
69173;BME280;56280;49.662;8.408;2023-02-05T13:23:14;102417.16;;;6.70;92.62
69173;BME280;56280;49.662;8.408;2023-02-05T13:26:01;102412.91;;;6.64;92.58
69173;BME280;56280;49.662;8.408;2023-02-05T13:28:49;102389.34;;;6.58;91.73
69173;BME280;56280;49.662;8.408;2023-02-05T13:31:24;102411.63;;;6.76;91.95
69173;BME280;56280;49.662;8.408;2023-02-05T13:33:53;102398.09;;;6.60;91.66
69173;BME280;56280;49.662;8.408;2023-02-05T13:45:03;102407.19;;;6.78;91.57
69173;BME280;56280;49.662;8.408;2023-02-05T13:47:45;102404.81;;;6.96;91.61
69173;BME280;56280;49.662;8.408;2023-02-05T13:53:14;102407.41;;;6.97;90.95
69173;BME280;56280;49.662;8.408;2023-02-05T13:58:56;102405.16;;;6.60;91.23
69173;BME280;56280;49.662;8.408;2023-02-05T14:01:26;102404.44;;;6.54;91.98
69173;BME280;56280;49.662;8.408;2023-02-05T14:04:21;102393.56;;;6.37;92.16
69173;BME280;56280;49.662;8.408;2023-02-05T14:07:03;102398.56;;;6.46;92.67
69173;BME280;56280;49.662;8.408;2023-02-05T14:09:33;102409.81;;;6.51;92.35
69173;BME280;56280;49.662;8.408;2023-02-05T14:12:03;102398.16;;;6.59;92.68
69173;BME280;56280;49.662;8.408;2023-02-05T14:14:30;102420.28;;;6.81;92.11
69173;BME280;56280;49.662;8.408;2023-02-05T14:17:01;102408.25;;;6.98;91.51
69173;BME280;56280;49.662;8.408;2023-02-05T14:26:54;102391.97;;;7.10;90.83
69173;BME280;56280;49.662;8.408;2023-02-05T14:29:44;102419.41;;;7.31;90.66
69173;BME280;56280;49.662;8.408;2023-02-05T14:38:22;102431.75;;;6.80;92.38
69173;BME280;56280;49.662;8.408;2023-02-05T14:41:09;102431.78;;;7.05;91.36
69173;BME280;56280;49.662;8.408;2023-02-05T14:43:37;102415.47;;;7.18;90.53
69173;BME280;56280;49.662;8.408;2023-02-05T14:46:06;102428.09;;;7.35;90.15
69173;BME280;56280;49.662;8.408;2023-02-05T14:48:47;102398.75;;;6.40;90.20
69173;BME280;56280;49.662;8.408;2023-02-05T14:51:27;102438.13;;;7.00;90.49